sensor_id;sensor_type;location;lat;lon;timestamp;P1;durP1;ratioP1;P2;durP2;ratioP2
19111;SDS011;9688;51.906;8.376;2022-10-16T00:02:55;5.03;;;4.30;;
19111;SDS011;9688;51.906;8.376;2022-10-16T00:06:00;7.00;;;4.73;;
19111;SDS011;9688;51.906;8.376;2022-10-16T00:09:06;6.60;;;4.43;;
19111;SDS011;9688;51.906;8.376;2022-10-16T00:12:16;6.67;;;4.97;;
19111;SDS011;9688;51.906;8.376;2022-10-16T00:15:20;6.87;;;5.00;;
19111;SDS011;9688;51.906;8.376;2022-10-16T00:18:25;10.17;;;5.70;;
19111;SDS011;9688;51.906;8.376;2022-10-16T00:21:31;9.17;;;5.70;;
19111;SDS011;9688;51.906;8.376;2022-10-16T00:24:37;8.83;;;5.70;;
19111;SDS011;9688;51.906;8.376;2022-10-16T00:27:42;7.10;;;5.10;;
19111;SDS011;9688;51.906;8.376;2022-10-16T00:30:53;9.43;;;5.50;;
19111;SDS011;9688;51.906;8.376;2022-10-16T00:34:00;11.07;;;6.13;;
19111;SDS011;9688;51.906;8.376;2022-10-16T00:37:06;9.10;;;6.37;;
19111;SDS011;9688;51.906;8.376;2022-10-16T00:40:20;9.97;;;6.00;;
19111;SDS011;9688;51.906;8.376;2022-10-16T00:43:37;11.37;;;6.13;;
19111;SDS011;9688;51.906;8.376;2022-10-16T00:46:43;6.10;;;5.27;;
19111;SDS011;9688;51.906;8.376;2022-10-16T00:49:47;7.13;;;5.53;;
19111;SDS011;9688;51.906;8.376;2022-10-16T00:52:56;9.43;;;5.77;;
19111;SDS011;9688;51.906;8.376;2022-10-16T00:56:04;7.40;;;5.73;;
19111;SDS011;9688;51.906;8.376;2022-10-16T00:59:10;10.60;;;5.70;;
19111;SDS011;9688;51.906;8.376;2022-10-16T01:02:19;11.73;;;5.90;;
19111;SDS011;9688;51.906;8.376;2022-10-16T01:05:24;7.10;;;5.80;;
19111;SDS011;9688;51.906;8.376;2022-10-16T01:08:36;9.20;;;5.97;;
19111;SDS011;9688;51.906;8.376;2022-10-16T01:11:53;9.97;;;5.40;;
19111;SDS011;9688;51.906;8.376;2022-10-16T01:15:07;8.47;;;5.70;;
19111;SDS011;9688;51.906;8.376;2022-10-16T01:18:19;6.83;;;5.50;;
19111;SDS011;9688;51.906;8.376;2022-10-16T01:21:30;9.37;;;5.77;;
19111;SDS011;9688;51.906;8.376;2022-10-16T01:24:40;8.87;;;5.67;;
19111;SDS011;9688;51.906;8.376;2022-10-16T01:27:48;7.77;;;5.93;;
19111;SDS011;9688;51.906;8.376;2022-10-16T01:30:55;7.17;;;5.63;;
19111;SDS011;9688;51.906;8.376;2022-10-16T01:34:22;8.70;;;5.77;;
19111;SDS011;9688;51.906;8.376;2022-10-16T01:37:36;9.87;;;5.33;;
19111;SDS011;9688;51.906;8.376;2022-10-16T01:40:45;9.77;;;5.77;;
19111;SDS011;9688;51.906;8.376;2022-10-16T01:43:57;12.60;;;5.67;;
19111;SDS011;9688;51.906;8.376;2022-10-16T01:47:07;8.90;;;6.27;;
19111;SDS011;9688;51.906;8.376;2022-10-16T01:50:14;11.23;;;6.27;;
19111;SDS011;9688;51.906;8.376;2022-10-16T01:53:28;14.70;;;8.03;;
19111;SDS011;9688;51.906;8.376;2022-10-16T01:56:34;22.27;;;11.60;;
19111;SDS011;9688;51.906;8.376;2022-10-16T01:59:42;14.40;;;9.07;;
19111;SDS011;9688;51.906;8.376;2022-10-16T02:02:51;17.30;;;6.80;;
19111;SDS011;9688;51.906;8.376;2022-10-16T02:06:01;10.80;;;6.87;;
19111;SDS011;9688;51.906;8.376;2022-10-16T02:09:06;9.07;;;5.87;;
19111;SDS011;9688;51.906;8.376;2022-10-16T02:12:12;9.10;;;5.83;;
19111;SDS011;9688;51.906;8.376;2022-10-16T02:15:23;10.43;;;6.00;;
19111;SDS011;9688;51.906;8.376;2022-10-16T02:18:28;10.20;;;5.27;;
19111;SDS011;9688;51.906;8.376;2022-10-16T02:21:35;8.83;;;6.00;;
19111;SDS011;9688;51.906;8.376;2022-10-16T02:24:47;10.70;;;6.40;;
19111;SDS011;9688;51.906;8.376;2022-10-16T02:28:01;12.40;;;6.87;;
19111;SDS011;9688;51.906;8.376;2022-10-16T02:31:12;15.10;;;6.37;;
19111;SDS011;9688;51.906;8.376;2022-10-16T02:34:23;10.80;;;6.50;;
19111;SDS011;9688;51.906;8.376;2022-10-16T02:37:29;14.73;;;6.13;;
19111;SDS011;9688;51.906;8.376;2022-10-16T02:40:34;11.33;;;6.07;;
19111;SDS011;9688;51.906;8.376;2022-10-16T02:43:42;9.63;;;4.83;;
19111;SDS011;9688;51.906;8.376;2022-10-16T02:50:29;10.30;;;5.30;;
19111;SDS011;9688;51.906;8.376;2022-10-16T02:53:40;9.57;;;5.43;;
19111;SDS011;9688;51.906;8.376;2022-10-16T02:56:57;7.70;;;5.33;;
19111;SDS011;9688;51.906;8.376;2022-10-16T03:00:08;11.07;;;5.47;;
19111;SDS011;9688;51.906;8.376;2022-10-16T03:03:25;7.43;;;5.27;;
19111;SDS011;9688;51.906;8.376;2022-10-16T03:06:34;7.87;;;5.40;;
19111;SDS011;9688;51.906;8.376;2022-10-16T03:09:39;7.30;;;5.23;;
19111;SDS011;9688;51.906;8.376;2022-10-16T03:12:43;6.47;;;5.30;;
19111;SDS011;9688;51.906;8.376;2022-10-16T03:15:48;8.97;;;5.07;;
19111;SDS011;9688;51.906;8.376;2022-10-16T03:18:54;6.87;;;5.17;;
19111;SDS011;9688;51.906;8.376;2022-10-16T03:21:59;8.67;;;5.13;;
19111;SDS011;9688;51.906;8.376;2022-10-16T03:25:04;8.23;;;5.00;;
19111;SDS011;9688;51.906;8.376;2022-10-16T03:28:09;9.17;;;4.97;;
19111;SDS011;9688;51.906;8.376;2022-10-16T03:31:15;6.40;;;4.67;;
19111;SDS011;9688;51.906;8.376;2022-10-16T03:34:23;7.80;;;4.13;;
19111;SDS011;9688;51.906;8.376;2022-10-16T03:37:31;6.37;;;4.10;;
19111;SDS011;9688;51.906;8.376;2022-10-16T03:40:35;5.57;;;4.37;;
19111;SDS011;9688;51.906;8.376;2022-10-16T03:43:39;6.30;;;4.10;;
19111;SDS011;9688;51.906;8.376;2022-10-16T03:46:44;5.97;;;4.03;;
19111;SDS011;9688;51.906;8.376;2022-10-16T03:49:49;5.83;;;3.83;;
19111;SDS011;9688;51.906;8.376;2022-10-16T03:52:55;6.53;;;4.27;;
19111;SDS011;9688;51.906;8.376;2022-10-16T03:55:59;5.40;;;3.37;;
19111;SDS011;9688;51.906;8.376;2022-10-16T03:59:06;4.37;;;3.30;;
19111;SDS011;9688;51.906;8.376;2022-10-16T04:02:10;4.03;;;3.27;;
19111;SDS011;9688;51.906;8.376;2022-10-16T04:09:03;4.00;;;3.40;;
19111;SDS011;9688;51.906;8.376;2022-10-16T04:12:07;3.23;;;3.03;;
19111;SDS011;9688;51.906;8.376;2022-10-16T04:15:21;4.03;;;3.23;;
19111;SDS011;9688;51.906;8.376;2022-10-16T04:18:27;8.53;;;3.20;;
19111;SDS011;9688;51.906;8.376;2022-10-16T04:21:33;4.87;;;3.00;;
19111;SDS011;9688;51.906;8.376;2022-10-16T04:24:37;2.93;;;2.70;;
19111;SDS011;9688;51.906;8.376;2022-10-16T04:27:42;3.73;;;2.73;;
19111;SDS011;9688;51.906;8.376;2022-10-16T04:30:55;5.73;;;2.50;;
19111;SDS011;9688;51.906;8.376;2022-10-16T04:34:00;3.67;;;2.50;;
19111;SDS011;9688;51.906;8.376;2022-10-16T04:37:06;4.20;;;2.53;;
19111;SDS011;9688;51.906;8.376;2022-10-16T04:40:14;4.20;;;2.53;;
19111;SDS011;9688;51.906;8.376;2022-10-16T04:43:19;5.60;;;2.90;;
19111;SDS011;9688;51.906;8.376;2022-10-16T04:46:24;3.27;;;2.80;;
19111;SDS011;9688;51.906;8.376;2022-10-16T04:49:28;2.60;;;2.40;;
19111;SDS011;9688;51.906;8.376;2022-10-16T04:52:34;3.67;;;2.60;;
19111;SDS011;9688;51.906;8.376;2022-10-16T04:55:38;6.10;;;2.67;;
19111;SDS011;9688;51.906;8.376;2022-10-16T04:58:43;2.67;;;2.47;;
19111;SDS011;9688;51.906;8.376;2022-10-16T05:01:48;4.60;;;2.63;;
19111;SDS011;9688;51.906;8.376;2022-10-16T05:04:52;3.67;;;2.60;;
19111;SDS011;9688;51.906;8.376;2022-10-16T05:08:01;7.13;;;2.70;;
19111;SDS011;9688;51.906;8.376;2022-10-16T05:11:06;6.43;;;2.93;;
19111;SDS011;9688;51.906;8.376;2022-10-16T05:14:19;3.87;;;2.70;;
19111;SDS011;9688;51.906;8.376;2022-10-16T05:17:24;2.83;;;2.60;;
19111;SDS011;9688;51.906;8.376;2022-10-16T05:20:32;3.47;;;2.47;;
19111;SDS011;9688;51.906;8.376;2022-10-16T05:23:38;3.80;;;2.50;;
19111;SDS011;9688;51.906;8.376;2022-10-16T05:26:43;2.43;;;2.33;;
19111;SDS011;9688;51.906;8.376;2022-10-16T05:29:51;2.27;;;2.17;;
19111;SDS011;9688;51.906;8.376;2022-10-16T05:32:58;10.27;;;2.70;;
19111;SDS011;9688;51.906;8.376;2022-10-16T05:36:03;3.13;;;2.27;;
19111;SDS011;9688;51.906;8.376;2022-10-16T05:39:10;6.53;;;3.13;;
19111;SDS011;9688;51.906;8.376;2022-10-16T05:42:16;5.60;;;2.80;;
19111;SDS011;9688;51.906;8.376;2022-10-16T05:45:21;3.87;;;2.63;;
19111;SDS011;9688;51.906;8.376;2022-10-16T05:48:26;3.10;;;2.80;;
19111;SDS011;9688;51.906;8.376;2022-10-16T05:51:31;3.00;;;2.80;;
19111;SDS011;9688;51.906;8.376;2022-10-16T05:54:37;2.60;;;2.40;;
19111;SDS011;9688;51.906;8.376;2022-10-16T05:57:41;8.13;;;2.57;;
19111;SDS011;9688;51.906;8.376;2022-10-16T06:00:54;2.83;;;2.47;;
19111;SDS011;9688;51.906;8.376;2022-10-16T06:03:59;3.03;;;2.70;;
19111;SDS011;9688;51.906;8.376;2022-10-16T06:07:04;4.20;;;2.60;;
19111;SDS011;9688;51.906;8.376;2022-10-16T06:10:10;2.33;;;2.23;;
19111;SDS011;9688;51.906;8.376;2022-10-16T06:13:14;2.43;;;2.30;;
19111;SDS011;9688;51.906;8.376;2022-10-16T06:16:22;2.63;;;2.43;;
19111;SDS011;9688;51.906;8.376;2022-10-16T06:19:52;2.80;;;2.60;;
19111;SDS011;9688;51.906;8.376;2022-10-16T06:22:56;2.67;;;2.50;;
19111;SDS011;9688;51.906;8.376;2022-10-16T06:26:06;2.30;;;2.20;;
19111;SDS011;9688;51.906;8.376;2022-10-16T06:29:14;2.30;;;2.10;;
19111;SDS011;9688;51.906;8.376;2022-10-16T06:32:19;4.17;;;2.13;;
19111;SDS011;9688;51.906;8.376;2022-10-16T06:35:24;4.60;;;1.70;;
19111;SDS011;9688;51.906;8.376;2022-10-16T06:38:29;3.87;;;2.10;;
19111;SDS011;9688;51.906;8.376;2022-10-16T06:41:35;2.47;;;1.90;;
19111;SDS011;9688;51.906;8.376;2022-10-16T06:44:40;2.00;;;1.90;;
19111;SDS011;9688;51.906;8.376;2022-10-16T06:47:44;2.53;;;2.00;;
19111;SDS011;9688;51.906;8.376;2022-10-16T06:50:55;2.20;;;1.70;;
19111;SDS011;9688;51.906;8.376;2022-10-16T06:54:00;2.33;;;1.80;;
19111;SDS011;9688;51.906;8.376;2022-10-16T06:57:07;2.27;;;1.70;;
19111;SDS011;9688;51.906;8.376;2022-10-16T07:00:12;3.47;;;2.00;;
19111;SDS011;9688;51.906;8.376;2022-10-16T07:03:19;1.80;;;1.70;;
19111;SDS011;9688;51.906;8.376;2022-10-16T07:06:24;1.83;;;1.70;;
19111;SDS011;9688;51.906;8.376;2022-10-16T07:09:30;2.10;;;1.70;;
19111;SDS011;9688;51.906;8.376;2022-10-16T07:12:35;1.93;;;1.70;;
19111;SDS011;9688;51.906;8.376;2022-10-16T07:15:40;3.67;;;1.60;;
19111;SDS011;9688;51.906;8.376;2022-10-16T07:18:45;3.40;;;1.83;;
19111;SDS011;9688;51.906;8.376;2022-10-16T07:21:55;2.40;;;1.87;;
19111;SDS011;9688;51.906;8.376;2022-10-16T07:25:01;2.23;;;1.67;;
19111;SDS011;9688;51.906;8.376;2022-10-16T07:28:06;2.03;;;1.93;;
19111;SDS011;9688;51.906;8.376;2022-10-16T07:31:13;3.87;;;1.73;;
19111;SDS011;9688;51.906;8.376;2022-10-16T07:34:20;1.80;;;1.70;;
19111;SDS011;9688;51.906;8.376;2022-10-16T07:37:25;1.73;;;1.63;;
19111;SDS011;9688;51.906;8.376;2022-10-16T07:40:29;1.83;;;1.60;;
19111;SDS011;9688;51.906;8.376;2022-10-16T07:43:34;6.80;;;1.77;;
19111;SDS011;9688;51.906;8.376;2022-10-16T07:46:39;1.77;;;1.57;;
19111;SDS011;9688;51.906;8.376;2022-10-16T07:49:43;1.57;;;1.57;;
19111;SDS011;9688;51.906;8.376;2022-10-16T07:52:48;1.70;;;1.60;;
19111;SDS011;9688;51.906;8.376;2022-10-16T07:55:56;2.93;;;1.67;;
19111;SDS011;9688;51.906;8.376;2022-10-16T07:59:03;3.53;;;1.50;;
19111;SDS011;9688;51.906;8.376;2022-10-16T08:02:10;2.63;;;1.40;;
19111;SDS011;9688;51.906;8.376;2022-10-16T08:05:14;1.70;;;1.50;;
19111;SDS011;9688;51.906;8.376;2022-10-16T08:08:19;1.93;;;1.50;;
19111;SDS011;9688;51.906;8.376;2022-10-16T08:11:23;1.67;;;1.60;;
19111;SDS011;9688;51.906;8.376;2022-10-16T08:14:29;3.20;;;1.70;;
19111;SDS011;9688;51.906;8.376;2022-10-16T08:17:33;1.70;;;1.40;;
19111;SDS011;9688;51.906;8.376;2022-10-16T08:20:38;2.43;;;1.43;;
19111;SDS011;9688;51.906;8.376;2022-10-16T08:23:43;1.33;;;1.30;;
19111;SDS011;9688;51.906;8.376;2022-10-16T08:26:48;1.30;;;1.20;;
19111;SDS011;9688;51.906;8.376;2022-10-16T08:29:54;5.90;;;1.60;;
19111;SDS011;9688;51.906;8.376;2022-10-16T08:33:00;1.37;;;1.37;;
19111;SDS011;9688;51.906;8.376;2022-10-16T08:36:06;1.93;;;1.30;;
19111;SDS011;9688;51.906;8.376;2022-10-16T08:39:12;1.23;;;1.23;;
19111;SDS011;9688;51.906;8.376;2022-10-16T08:42:25;1.73;;;1.63;;
19111;SDS011;9688;51.906;8.376;2022-10-16T08:45:51;1.67;;;1.40;;
19111;SDS011;9688;51.906;8.376;2022-10-16T08:49:15;3.70;;;1.50;;
19111;SDS011;9688;51.906;8.376;2022-10-16T08:52:21;1.67;;;1.57;;
19111;SDS011;9688;51.906;8.376;2022-10-16T08:55:31;1.30;;;1.30;;
19111;SDS011;9688;51.906;8.376;2022-10-16T08:58:41;2.00;;;1.50;;
19111;SDS011;9688;51.906;8.376;2022-10-16T09:01:49;1.17;;;1.13;;
19111;SDS011;9688;51.906;8.376;2022-10-16T09:04:58;3.87;;;1.40;;
19111;SDS011;9688;51.906;8.376;2022-10-16T09:08:23;1.90;;;1.20;;
19111;SDS011;9688;51.906;8.376;2022-10-16T09:11:37;5.40;;;1.20;;
19111;SDS011;9688;51.906;8.376;2022-10-16T09:14:50;1.30;;;1.20;;
19111;SDS011;9688;51.906;8.376;2022-10-16T09:18:06;2.83;;;1.40;;
19111;SDS011;9688;51.906;8.376;2022-10-16T09:21:18;1.10;;;1.10;;
19111;SDS011;9688;51.906;8.376;2022-10-16T09:24:25;2.50;;;1.37;;
19111;SDS011;9688;51.906;8.376;2022-10-16T09:27:30;1.20;;;1.07;;
19111;SDS011;9688;51.906;8.376;2022-10-16T09:30:35;1.87;;;1.10;;
19111;SDS011;9688;51.906;8.376;2022-10-16T09:33:43;3.37;;;1.93;;
19111;SDS011;9688;51.906;8.376;2022-10-16T09:36:52;1.63;;;1.10;;
19111;SDS011;9688;51.906;8.376;2022-10-16T09:39:58;2.50;;;1.10;;
19111;SDS011;9688;51.906;8.376;2022-10-16T09:43:16;4.53;;;1.37;;
19111;SDS011;9688;51.906;8.376;2022-10-16T09:46:27;1.93;;;1.00;;
19111;SDS011;9688;51.906;8.376;2022-10-16T09:49:34;3.13;;;0.90;;
19111;SDS011;9688;51.906;8.376;2022-10-16T09:52:40;2.37;;;1.10;;
19111;SDS011;9688;51.906;8.376;2022-10-16T09:55:47;2.63;;;1.00;;
19111;SDS011;9688;51.906;8.376;2022-10-16T09:58:53;3.23;;;1.30;;
19111;SDS011;9688;51.906;8.376;2022-10-16T10:02:01;0.80;;;0.80;;
19111;SDS011;9688;51.906;8.376;2022-10-16T10:05:17;2.00;;;0.90;;
19111;SDS011;9688;51.906;8.376;2022-10-16T10:08:23;0.70;;;0.70;;
19111;SDS011;9688;51.906;8.376;2022-10-16T10:15:02;3.37;;;1.00;;
19111;SDS011;9688;51.906;8.376;2022-10-16T10:18:15;2.97;;;0.90;;
19111;SDS011;9688;51.906;8.376;2022-10-16T10:21:26;4.07;;;1.07;;
19111;SDS011;9688;51.906;8.376;2022-10-16T10:24:31;1.40;;;0.93;;
19111;SDS011;9688;51.906;8.376;2022-10-16T10:27:37;1.03;;;0.90;;
19111;SDS011;9688;51.906;8.376;2022-10-16T10:30:51;1.57;;;0.87;;
19111;SDS011;9688;51.906;8.376;2022-10-16T10:34:08;1.90;;;0.90;;
19111;SDS011;9688;51.906;8.376;2022-10-16T10:37:31;2.63;;;0.90;;
19111;SDS011;9688;51.906;8.376;2022-10-16T10:40:49;2.70;;;1.10;;
19111;SDS011;9688;51.906;8.376;2022-10-16T10:44:03;2.07;;;0.80;;
19111;SDS011;9688;51.906;8.376;2022-10-16T10:47:17;4.90;;;1.17;;
19111;SDS011;9688;51.906;8.376;2022-10-16T10:50:36;1.50;;;1.07;;
19111;SDS011;9688;51.906;8.376;2022-10-16T10:53:48;2.73;;;0.90;;
19111;SDS011;9688;51.906;8.376;2022-10-16T10:57:02;1.87;;;0.90;;
19111;SDS011;9688;51.906;8.376;2022-10-16T11:00:16;3.03;;;1.07;;
19111;SDS011;9688;51.906;8.376;2022-10-16T11:03:31;1.67;;;1.10;;
19111;SDS011;9688;51.906;8.376;2022-10-16T11:06:46;1.97;;;0.83;;
19111;SDS011;9688;51.906;8.376;2022-10-16T11:09:57;1.33;;;1.00;;
19111;SDS011;9688;51.906;8.376;2022-10-16T11:13:10;2.83;;;1.10;;
19111;SDS011;9688;51.906;8.376;2022-10-16T11:16:26;2.00;;;0.93;;
19111;SDS011;9688;51.906;8.376;2022-10-16T11:19:35;1.63;;;1.00;;
19111;SDS011;9688;51.906;8.376;2022-10-16T11:22:47;2.47;;;0.80;;
19111;SDS011;9688;51.906;8.376;2022-10-16T11:25:59;3.43;;;0.90;;
19111;SDS011;9688;51.906;8.376;2022-10-16T11:29:07;2.87;;;1.13;;
19111;SDS011;9688;51.906;8.376;2022-10-16T11:32:22;1.30;;;1.00;;
19111;SDS011;9688;51.906;8.376;2022-10-16T11:35:37;1.93;;;0.90;;
19111;SDS011;9688;51.906;8.376;2022-10-16T11:38:48;5.20;;;1.10;;
19111;SDS011;9688;51.906;8.376;2022-10-16T11:41:59;2.63;;;0.90;;
19111;SDS011;9688;51.906;8.376;2022-10-16T11:45:08;2.40;;;1.00;;
19111;SDS011;9688;51.906;8.376;2022-10-16T11:48:27;1.90;;;0.80;;
19111;SDS011;9688;51.906;8.376;2022-10-16T11:51:38;2.73;;;0.97;;
19111;SDS011;9688;51.906;8.376;2022-10-16T11:54:49;1.10;;;0.80;;
19111;SDS011;9688;51.906;8.376;2022-10-16T11:58:07;13.10;;;1.97;;
19111;SDS011;9688;51.906;8.376;2022-10-16T12:01:22;3.53;;;1.13;;
19111;SDS011;9688;51.906;8.376;2022-10-16T12:04:33;3.40;;;0.90;;
19111;SDS011;9688;51.906;8.376;2022-10-16T12:07:49;2.20;;;1.10;;
19111;SDS011;9688;51.906;8.376;2022-10-16T12:11:08;1.87;;;0.70;;
19111;SDS011;9688;51.906;8.376;2022-10-16T12:14:36;3.33;;;1.10;;
19111;SDS011;9688;51.906;8.376;2022-10-16T12:17:42;2.17;;;0.97;;
19111;SDS011;9688;51.906;8.376;2022-10-16T12:20:53;2.27;;;0.83;;
19111;SDS011;9688;51.906;8.376;2022-10-16T12:24:02;3.20;;;0.87;;
19111;SDS011;9688;51.906;8.376;2022-10-16T12:27:19;4.97;;;1.90;;
19111;SDS011;9688;51.906;8.376;2022-10-16T12:30:32;1.93;;;1.23;;
19111;SDS011;9688;51.906;8.376;2022-10-16T12:33:39;1.50;;;0.93;;
19111;SDS011;9688;51.906;8.376;2022-10-16T12:37:06;2.50;;;0.77;;
19111;SDS011;9688;51.906;8.376;2022-10-16T12:40:15;2.77;;;1.00;;
19111;SDS011;9688;51.906;8.376;2022-10-16T12:43:37;2.30;;;1.20;;
19111;SDS011;9688;51.906;8.376;2022-10-16T12:46:47;3.13;;;1.10;;
19111;SDS011;9688;51.906;8.376;2022-10-16T12:49:54;1.00;;;0.90;;
19111;SDS011;9688;51.906;8.376;2022-10-16T12:52:59;3.33;;;0.90;;
19111;SDS011;9688;51.906;8.376;2022-10-16T12:56:09;4.23;;;1.13;;
19111;SDS011;9688;51.906;8.376;2022-10-16T12:59:24;2.17;;;0.93;;
19111;SDS011;9688;51.906;8.376;2022-10-16T13:06:30;3.33;;;1.13;;
19111;SDS011;9688;51.906;8.376;2022-10-16T13:09:44;1.50;;;1.07;;
19111;SDS011;9688;51.906;8.376;2022-10-16T13:16:43;3.30;;;1.67;;
19111;SDS011;9688;51.906;8.376;2022-10-16T13:20:02;1.50;;;0.90;;
19111;SDS011;9688;51.906;8.376;2022-10-16T13:23:20;1.70;;;0.87;;
19111;SDS011;9688;51.906;8.376;2022-10-16T13:26:31;1.90;;;0.80;;
19111;SDS011;9688;51.906;8.376;2022-10-16T13:29:44;2.03;;;1.00;;
19111;SDS011;9688;51.906;8.376;2022-10-16T13:33:00;1.30;;;1.20;;
19111;SDS011;9688;51.906;8.376;2022-10-16T13:36:20;3.77;;;1.00;;
19111;SDS011;9688;51.906;8.376;2022-10-16T13:39:28;1.67;;;1.47;;
19111;SDS011;9688;51.906;8.376;2022-10-16T13:42:36;1.00;;;0.90;;
19111;SDS011;9688;51.906;8.376;2022-10-16T13:45:40;1.53;;;1.07;;
19111;SDS011;9688;51.906;8.376;2022-10-16T13:48:56;3.63;;;1.20;;
19111;SDS011;9688;51.906;8.376;2022-10-16T13:52:03;1.90;;;1.00;;
19111;SDS011;9688;51.906;8.376;2022-10-16T13:55:10;1.67;;;1.30;;
19111;SDS011;9688;51.906;8.376;2022-10-16T13:58:18;2.57;;;1.40;;
19111;SDS011;9688;51.906;8.376;2022-10-16T14:01:24;0.93;;;0.93;;
19111;SDS011;9688;51.906;8.376;2022-10-16T14:04:32;0.77;;;0.77;;
19111;SDS011;9688;51.906;8.376;2022-10-16T14:07:41;0.80;;;0.80;;
19111;SDS011;9688;51.906;8.376;2022-10-16T14:10:48;1.63;;;0.90;;
19111;SDS011;9688;51.906;8.376;2022-10-16T14:13:56;4.43;;;1.17;;
19111;SDS011;9688;51.906;8.376;2022-10-16T14:17:03;7.17;;;2.70;;
19111;SDS011;9688;51.906;8.376;2022-10-16T14:20:16;2.80;;;1.87;;
19111;SDS011;9688;51.906;8.376;2022-10-16T14:23:23;2.17;;;1.13;;
19111;SDS011;9688;51.906;8.376;2022-10-16T14:26:40;1.27;;;0.67;;
19111;SDS011;9688;51.906;8.376;2022-10-16T14:29:46;1.23;;;0.70;;
19111;SDS011;9688;51.906;8.376;2022-10-16T14:32:52;0.80;;;0.80;;
19111;SDS011;9688;51.906;8.376;2022-10-16T14:36:02;2.47;;;0.80;;
19111;SDS011;9688;51.906;8.376;2022-10-16T14:39:17;0.90;;;0.90;;
19111;SDS011;9688;51.906;8.376;2022-10-16T14:42:25;2.77;;;0.83;;
19111;SDS011;9688;51.906;8.376;2022-10-16T14:45:32;0.80;;;0.70;;
19111;SDS011;9688;51.906;8.376;2022-10-16T14:48:42;2.47;;;1.17;;
19111;SDS011;9688;51.906;8.376;2022-10-16T14:51:55;2.17;;;0.80;;
19111;SDS011;9688;51.906;8.376;2022-10-16T14:55:05;4.13;;;1.03;;
19111;SDS011;9688;51.906;8.376;2022-10-16T14:58:13;1.03;;;1.00;;
19111;SDS011;9688;51.906;8.376;2022-10-16T15:01:20;3.93;;;0.90;;
19111;SDS011;9688;51.906;8.376;2022-10-16T15:04:24;1.27;;;1.07;;
19111;SDS011;9688;51.906;8.376;2022-10-16T15:07:29;2.13;;;0.90;;
19111;SDS011;9688;51.906;8.376;2022-10-16T15:10:35;3.80;;;1.60;;
19111;SDS011;9688;51.906;8.376;2022-10-16T15:13:44;2.37;;;0.90;;
19111;SDS011;9688;51.906;8.376;2022-10-16T15:16:51;1.83;;;0.90;;
19111;SDS011;9688;51.906;8.376;2022-10-16T15:19:58;1.63;;;0.90;;
19111;SDS011;9688;51.906;8.376;2022-10-16T15:23:03;0.93;;;0.90;;
19111;SDS011;9688;51.906;8.376;2022-10-16T15:26:13;1.53;;;0.90;;
19111;SDS011;9688;51.906;8.376;2022-10-16T15:29:19;0.97;;;0.60;;
19111;SDS011;9688;51.906;8.376;2022-10-16T15:32:25;1.17;;;0.80;;
19111;SDS011;9688;51.906;8.376;2022-10-16T15:35:29;2.90;;;1.20;;
19111;SDS011;9688;51.906;8.376;2022-10-16T15:38:35;1.13;;;1.13;;
19111;SDS011;9688;51.906;8.376;2022-10-16T15:41:43;1.23;;;0.90;;
19111;SDS011;9688;51.906;8.376;2022-10-16T15:44:53;2.97;;;0.90;;
19111;SDS011;9688;51.906;8.376;2022-10-16T15:47:57;4.33;;;1.10;;
19111;SDS011;9688;51.906;8.376;2022-10-16T15:51:04;4.83;;;1.20;;
19111;SDS011;9688;51.906;8.376;2022-10-16T15:54:09;3.23;;;1.00;;
19111;SDS011;9688;51.906;8.376;2022-10-16T15:57:15;2.20;;;1.23;;
19111;SDS011;9688;51.906;8.376;2022-10-16T16:00:21;0.90;;;0.90;;
19111;SDS011;9688;51.906;8.376;2022-10-16T16:03:29;3.23;;;1.13;;
19111;SDS011;9688;51.906;8.376;2022-10-16T16:06:36;3.13;;;1.63;;
19111;SDS011;9688;51.906;8.376;2022-10-16T16:09:47;4.67;;;2.00;;
19111;SDS011;9688;51.906;8.376;2022-10-16T16:12:53;4.23;;;2.63;;
19111;SDS011;9688;51.906;8.376;2022-10-16T16:15:59;8.40;;;3.20;;
19111;SDS011;9688;51.906;8.376;2022-10-16T16:19:04;7.93;;;3.43;;
19111;SDS011;9688;51.906;8.376;2022-10-16T16:22:10;4.97;;;2.97;;
19111;SDS011;9688;51.906;8.376;2022-10-16T16:25:16;5.77;;;3.37;;
19111;SDS011;9688;51.906;8.376;2022-10-16T16:28:26;6.43;;;2.80;;
19111;SDS011;9688;51.906;8.376;2022-10-16T16:31:31;2.97;;;2.40;;
19111;SDS011;9688;51.906;8.376;2022-10-16T16:34:37;4.77;;;2.80;;
19111;SDS011;9688;51.906;8.376;2022-10-16T16:37:42;5.13;;;3.10;;
19111;SDS011;9688;51.906;8.376;2022-10-16T16:40:46;8.07;;;2.87;;
19111;SDS011;9688;51.906;8.376;2022-10-16T16:43:52;5.03;;;2.50;;
19111;SDS011;9688;51.906;8.376;2022-10-16T16:46:58;7.03;;;3.17;;
19111;SDS011;9688;51.906;8.376;2022-10-16T16:50:05;5.10;;;2.40;;
19111;SDS011;9688;51.906;8.376;2022-10-16T16:53:11;5.73;;;3.10;;
19111;SDS011;9688;51.906;8.376;2022-10-16T16:56:16;3.87;;;2.83;;
19111;SDS011;9688;51.906;8.376;2022-10-16T16:59:22;3.63;;;1.80;;
19111;SDS011;9688;51.906;8.376;2022-10-16T17:02:27;3.30;;;2.10;;
19111;SDS011;9688;51.906;8.376;2022-10-16T17:05:31;3.13;;;2.10;;
19111;SDS011;9688;51.906;8.376;2022-10-16T17:08:36;2.83;;;2.23;;
19111;SDS011;9688;51.906;8.376;2022-10-16T17:11:41;2.83;;;2.00;;
19111;SDS011;9688;51.906;8.376;2022-10-16T17:14:48;3.87;;;2.30;;
19111;SDS011;9688;51.906;8.376;2022-10-16T17:17:54;6.10;;;1.93;;
19111;SDS011;9688;51.906;8.376;2022-10-16T17:20:59;4.60;;;1.90;;
19111;SDS011;9688;51.906;8.376;2022-10-16T17:24:04;3.17;;;1.93;;
19111;SDS011;9688;51.906;8.376;2022-10-16T17:27:09;7.03;;;2.53;;
19111;SDS011;9688;51.906;8.376;2022-10-16T17:30:16;3.20;;;2.10;;
19111;SDS011;9688;51.906;8.376;2022-10-16T17:33:20;3.00;;;2.40;;
19111;SDS011;9688;51.906;8.376;2022-10-16T17:36:25;17.57;;;6.37;;
19111;SDS011;9688;51.906;8.376;2022-10-16T17:39:32;5.90;;;3.73;;
19111;SDS011;9688;51.906;8.376;2022-10-16T17:42:39;7.97;;;3.10;;
19111;SDS011;9688;51.906;8.376;2022-10-16T17:45:45;4.53;;;2.50;;
19111;SDS011;9688;51.906;8.376;2022-10-16T17:48:50;7.73;;;2.77;;
19111;SDS011;9688;51.906;8.376;2022-10-16T17:51:56;7.13;;;2.80;;
19111;SDS011;9688;51.906;8.376;2022-10-16T17:55:04;7.47;;;3.20;;
19111;SDS011;9688;51.906;8.376;2022-10-16T17:58:10;5.10;;;2.53;;
19111;SDS011;9688;51.906;8.376;2022-10-16T18:01:17;6.73;;;2.93;;
19111;SDS011;9688;51.906;8.376;2022-10-16T18:04:22;6.83;;;2.80;;
19111;SDS011;9688;51.906;8.376;2022-10-16T18:07:27;4.30;;;2.40;;
19111;SDS011;9688;51.906;8.376;2022-10-16T18:10:32;8.37;;;2.90;;
19111;SDS011;9688;51.906;8.376;2022-10-16T18:13:39;5.10;;;3.07;;
19111;SDS011;9688;51.906;8.376;2022-10-16T18:16:45;6.07;;;2.60;;
19111;SDS011;9688;51.906;8.376;2022-10-16T18:19:51;4.73;;;3.23;;
19111;SDS011;9688;51.906;8.376;2022-10-16T18:22:55;4.53;;;2.73;;
19111;SDS011;9688;51.906;8.376;2022-10-16T18:26:00;11.30;;;4.50;;
19111;SDS011;9688;51.906;8.376;2022-10-16T18:29:05;7.87;;;2.80;;
19111;SDS011;9688;51.906;8.376;2022-10-16T18:32:12;5.40;;;2.80;;
19111;SDS011;9688;51.906;8.376;2022-10-16T18:35:16;6.60;;;3.40;;
19111;SDS011;9688;51.906;8.376;2022-10-16T18:38:21;7.47;;;3.20;;
19111;SDS011;9688;51.906;8.376;2022-10-16T18:41:26;14.83;;;6.00;;
19111;SDS011;9688;51.906;8.376;2022-10-16T18:44:34;9.93;;;5.07;;
19111;SDS011;9688;51.906;8.376;2022-10-16T18:47:40;8.77;;;4.63;;
19111;SDS011;9688;51.906;8.376;2022-10-16T18:50:45;6.93;;;4.00;;
19111;SDS011;9688;51.906;8.376;2022-10-16T18:53:51;8.33;;;4.13;;
19111;SDS011;9688;51.906;8.376;2022-10-16T18:57:01;7.43;;;3.93;;
19111;SDS011;9688;51.906;8.376;2022-10-16T19:00:07;5.57;;;3.47;;
19111;SDS011;9688;51.906;8.376;2022-10-16T19:03:14;7.43;;;3.63;;
19111;SDS011;9688;51.906;8.376;2022-10-16T19:06:21;6.70;;;3.97;;
19111;SDS011;9688;51.906;8.376;2022-10-16T19:09:26;6.73;;;3.10;;
19111;SDS011;9688;51.906;8.376;2022-10-16T19:12:34;6.27;;;2.60;;
19111;SDS011;9688;51.906;8.376;2022-10-16T19:15:45;4.40;;;3.33;;
19111;SDS011;9688;51.906;8.376;2022-10-16T19:18:56;9.43;;;3.60;;
19111;SDS011;9688;51.906;8.376;2022-10-16T19:22:02;4.63;;;3.50;;
19111;SDS011;9688;51.906;8.376;2022-10-16T19:25:19;9.93;;;3.00;;
19111;SDS011;9688;51.906;8.376;2022-10-16T19:28:25;6.50;;;3.30;;
19111;SDS011;9688;51.906;8.376;2022-10-16T19:31:29;6.33;;;2.60;;